sensor_id;sensor_type;location;lat;lon;timestamp;temperature;humidity
57386;DHT22;62655;56.780;23.922;2022-10-16T00:00:49;11.60;99.90
57386;DHT22;62655;56.780;23.922;2022-10-16T00:03:16;11.60;99.90
57386;DHT22;62655;56.780;23.922;2022-10-16T00:05:44;11.60;99.90
57386;DHT22;62655;56.780;23.922;2022-10-16T00:08:11;11.60;99.90
57386;DHT22;62655;56.780;23.922;2022-10-16T00:10:39;11.60;99.90
57386;DHT22;62655;56.780;23.922;2022-10-16T00:13:07;11.70;99.90
57386;DHT22;62655;56.780;23.922;2022-10-16T00:15:35;11.70;99.90
57386;DHT22;62655;56.780;23.922;2022-10-16T00:18:03;11.70;99.90
57386;DHT22;62655;56.780;23.922;2022-10-16T00:20:33;11.70;99.90
57386;DHT22;62655;56.780;23.922;2022-10-16T00:23:00;11.70;99.90
57386;DHT22;62655;56.780;23.922;2022-10-16T00:25:28;11.70;99.90
57386;DHT22;62655;56.780;23.922;2022-10-16T00:27:55;11.70;99.90
57386;DHT22;62655;56.780;23.922;2022-10-16T00:30:22;11.70;99.90
57386;DHT22;62655;56.780;23.922;2022-10-16T00:32:50;11.70;99.90
57386;DHT22;62655;56.780;23.922;2022-10-16T00:35:17;11.70;99.90
57386;DHT22;62655;56.780;23.922;2022-10-16T00:37:44;11.70;99.90
57386;DHT22;62655;56.780;23.922;2022-10-16T00:40:11;11.70;99.90
57386;DHT22;62655;56.780;23.922;2022-10-16T00:42:38;11.70;99.90
57386;DHT22;62655;56.780;23.922;2022-10-16T00:45:06;11.70;99.90
57386;DHT22;62655;56.780;23.922;2022-10-16T00:47:40;11.70;99.90
57386;DHT22;62655;56.780;23.922;2022-10-16T00:52:39;11.70;99.90
57386;DHT22;62655;56.780;23.922;2022-10-16T00:55:08;11.80;99.90
57386;DHT22;62655;56.780;23.922;2022-10-16T00:57:36;11.80;99.90
57386;DHT22;62655;56.780;23.922;2022-10-16T01:00:05;11.80;99.90
57386;DHT22;62655;56.780;23.922;2022-10-16T01:02:32;11.80;99.90
57386;DHT22;62655;56.780;23.922;2022-10-16T01:04:59;11.90;99.90
57386;DHT22;62655;56.780;23.922;2022-10-16T01:07:30;11.80;99.90
57386;DHT22;62655;56.780;23.922;2022-10-16T01:10:07;11.80;99.90
57386;DHT22;62655;56.780;23.922;2022-10-16T01:12:43;11.80;99.90
57386;DHT22;62655;56.780;23.922;2022-10-16T01:20:16;11.70;99.90
57386;DHT22;62655;56.780;23.922;2022-10-16T01:22:55;11.70;99.90
57386;DHT22;62655;56.780;23.922;2022-10-16T01:25:25;11.70;99.90
57386;DHT22;62655;56.780;23.922;2022-10-16T01:27:56;11.70;99.90
57386;DHT22;62655;56.780;23.922;2022-10-16T01:30:26;11.70;99.90
57386;DHT22;62655;56.780;23.922;2022-10-16T01:35:30;11.70;99.90
57386;DHT22;62655;56.780;23.922;2022-10-16T01:40:29;11.70;99.90
57386;DHT22;62655;56.780;23.922;2022-10-16T01:43:00;11.70;99.90
57386;DHT22;62655;56.780;23.922;2022-10-16T01:45:29;11.70;99.90
57386;DHT22;62655;56.780;23.922;2022-10-16T01:47:58;11.70;99.90
57386;DHT22;62655;56.780;23.922;2022-10-16T01:50:26;11.70;99.90
57386;DHT22;62655;56.780;23.922;2022-10-16T01:52:54;11.70;99.90
57386;DHT22;62655;56.780;23.922;2022-10-16T01:55:23;11.70;99.90
57386;DHT22;62655;56.780;23.922;2022-10-16T01:57:51;11.80;99.90
57386;DHT22;62655;56.780;23.922;2022-10-16T02:00:20;11.80;99.90
57386;DHT22;62655;56.780;23.922;2022-10-16T02:02:49;11.70;99.90
57386;DHT22;62655;56.780;23.922;2022-10-16T02:05:30;11.80;99.90
57386;DHT22;62655;56.780;23.922;2022-10-16T02:07:57;11.70;99.90
57386;DHT22;62655;56.780;23.922;2022-10-16T02:10:31;11.80;99.90
57386;DHT22;62655;56.780;23.922;2022-10-16T02:13:19;11.80;99.90
57386;DHT22;62655;56.780;23.922;2022-10-16T02:15:48;11.80;99.90
57386;DHT22;62655;56.780;23.922;2022-10-16T02:18:15;11.80;99.90
57386;DHT22;62655;56.780;23.922;2022-10-16T02:20:51;11.80;99.90
57386;DHT22;62655;56.780;23.922;2022-10-16T02:23:28;11.80;99.90
57386;DHT22;62655;56.780;23.922;2022-10-16T02:25:57;11.80;99.90
57386;DHT22;62655;56.780;23.922;2022-10-16T02:28:31;11.80;99.90
57386;DHT22;62655;56.780;23.922;2022-10-16T02:31:03;11.90;99.90
57386;DHT22;62655;56.780;23.922;2022-10-16T02:33:31;11.90;99.90
57386;DHT22;62655;56.780;23.922;2022-10-16T02:36:00;11.90;99.90
57386;DHT22;62655;56.780;23.922;2022-10-16T02:38:27;11.90;99.90
57386;DHT22;62655;56.780;23.922;2022-10-16T02:40:57;12.00;99.90
57386;DHT22;62655;56.780;23.922;2022-10-16T02:43:25;12.00;99.90
57386;DHT22;62655;56.780;23.922;2022-10-16T02:45:52;12.00;99.90
57386;DHT22;62655;56.780;23.922;2022-10-16T02:48:19;12.00;99.90
57386;DHT22;62655;56.780;23.922;2022-10-16T02:50:46;12.00;99.90
57386;DHT22;62655;56.780;23.922;2022-10-16T02:53:14;12.00;99.90
57386;DHT22;62655;56.780;23.922;2022-10-16T02:55:41;12.00;99.90
57386;DHT22;62655;56.780;23.922;2022-10-16T02:58:08;12.10;99.90
57386;DHT22;62655;56.780;23.922;2022-10-16T03:00:36;12.10;99.90
57386;DHT22;62655;56.780;23.922;2022-10-16T03:03:03;12.10;99.90
57386;DHT22;62655;56.780;23.922;2022-10-16T03:05:30;12.10;99.90
57386;DHT22;62655;56.780;23.922;2022-10-16T03:07:57;12.20;99.90
57386;DHT22;62655;56.780;23.922;2022-10-16T03:10:26;12.20;99.90
57386;DHT22;62655;56.780;23.922;2022-10-16T03:12:54;12.10;99.90
57386;DHT22;62655;56.780;23.922;2022-10-16T03:15:21;12.20;99.90
57386;DHT22;62655;56.780;23.922;2022-10-16T03:17:48;12.20;99.90
57386;DHT22;62655;56.780;23.922;2022-10-16T03:20:15;12.20;99.90
57386;DHT22;62655;56.780;23.922;2022-10-16T03:22:42;12.20;99.90
57386;DHT22;62655;56.780;23.922;2022-10-16T03:25:10;12.30;99.90
57386;DHT22;62655;56.780;23.922;2022-10-16T03:27:37;12.20;99.90
57386;DHT22;62655;56.780;23.922;2022-10-16T03:30:04;12.30;99.90
57386;DHT22;62655;56.780;23.922;2022-10-16T03:32:32;12.30;99.90
57386;DHT22;62655;56.780;23.922;2022-10-16T03:35:04;12.30;99.90
57386;DHT22;62655;56.780;23.922;2022-10-16T03:37:31;12.30;99.90
57386;DHT22;62655;56.780;23.922;2022-10-16T03:39:58;12.30;99.90
57386;DHT22;62655;56.780;23.922;2022-10-16T03:42:26;12.30;99.90
57386;DHT22;62655;56.780;23.922;2022-10-16T03:44:53;12.30;99.90
57386;DHT22;62655;56.780;23.922;2022-10-16T03:47:20;12.40;99.90
57386;DHT22;62655;56.780;23.922;2022-10-16T03:49:50;12.40;99.90
57386;DHT22;62655;56.780;23.922;2022-10-16T03:52:17;12.40;99.90
57386;DHT22;62655;56.780;23.922;2022-10-16T03:54:49;12.40;99.90
57386;DHT22;62655;56.780;23.922;2022-10-16T03:57:16;12.40;99.90
57386;DHT22;62655;56.780;23.922;2022-10-16T03:59:44;12.40;99.90
57386;DHT22;62655;56.780;23.922;2022-10-16T04:02:11;12.40;99.90
57386;DHT22;62655;56.780;23.922;2022-10-16T04:04:39;12.40;99.90
57386;DHT22;62655;56.780;23.922;2022-10-16T04:07:06;12.40;99.90
57386;DHT22;62655;56.780;23.922;2022-10-16T04:09:33;12.50;99.90
57386;DHT22;62655;56.780;23.922;2022-10-16T04:12:00;12.40;99.90
57386;DHT22;62655;56.780;23.922;2022-10-16T04:14:27;12.50;99.90
57386;DHT22;62655;56.780;23.922;2022-10-16T04:16:54;12.50;99.90
57386;DHT22;62655;56.780;23.922;2022-10-16T04:19:22;12.50;99.90
57386;DHT22;62655;56.780;23.922;2022-10-16T04:21:49;12.50;99.90
57386;DHT22;62655;56.780;23.922;2022-10-16T04:24:16;12.50;99.90
57386;DHT22;62655;56.780;23.922;2022-10-16T04:26:43;12.40;99.90
57386;DHT22;62655;56.780;23.922;2022-10-16T04:29:10;12.40;99.90
57386;DHT22;62655;56.780;23.922;2022-10-16T04:31:38;12.40;99.90
57386;DHT22;62655;56.780;23.922;2022-10-16T04:34:05;12.40;99.90
57386;DHT22;62655;56.780;23.922;2022-10-16T04:36:32;12.40;99.90
57386;DHT22;62655;56.780;23.922;2022-10-16T04:38:59;12.40;99.90
57386;DHT22;62655;56.780;23.922;2022-10-16T04:41:27;12.40;99.90
57386;DHT22;62655;56.780;23.922;2022-10-16T04:43:54;12.40;99.90
57386;DHT22;62655;56.780;23.922;2022-10-16T04:46:21;12.40;99.90
57386;DHT22;62655;56.780;23.922;2022-10-16T04:48:48;12.30;99.90
57386;DHT22;62655;56.780;23.922;2022-10-16T04:51:15;12.30;99.90
57386;DHT22;62655;56.780;23.922;2022-10-16T04:53:43;12.30;99.90
57386;DHT22;62655;56.780;23.922;2022-10-16T04:56:10;12.40;99.90
57386;DHT22;62655;56.780;23.922;2022-10-16T04:58:37;12.40;99.90
57386;DHT22;62655;56.780;23.922;2022-10-16T05:01:04;12.40;99.90
57386;DHT22;62655;56.780;23.922;2022-10-16T05:03:32;12.40;99.90
57386;DHT22;62655;56.780;23.922;2022-10-16T05:05:59;12.40;99.90
57386;DHT22;62655;56.780;23.922;2022-10-16T05:08:26;12.40;99.90
57386;DHT22;62655;56.780;23.922;2022-10-16T05:10:53;12.40;99.90
57386;DHT22;62655;56.780;23.922;2022-10-16T05:13:20;12.40;99.90
57386;DHT22;62655;56.780;23.922;2022-10-16T05:15:48;12.40;99.90
57386;DHT22;62655;56.780;23.922;2022-10-16T05:18:15;12.40;99.90
57386;DHT22;62655;56.780;23.922;2022-10-16T05:20:42;12.40;99.90
57386;DHT22;62655;56.780;23.922;2022-10-16T05:23:10;12.50;99.90
57386;DHT22;62655;56.780;23.922;2022-10-16T05:25:43;12.50;99.90
57386;DHT22;62655;56.780;23.922;2022-10-16T05:28:10;12.60;99.90
57386;DHT22;62655;56.780;23.922;2022-10-16T05:30:37;12.60;99.90
57386;DHT22;62655;56.780;23.922;2022-10-16T05:33:05;12.60;99.90
57386;DHT22;62655;56.780;23.922;2022-10-16T05:35:32;12.60;99.90
57386;DHT22;62655;56.780;23.922;2022-10-16T05:38:00;12.60;99.90
57386;DHT22;62655;56.780;23.922;2022-10-16T05:40:28;12.60;99.90
57386;DHT22;62655;56.780;23.922;2022-10-16T05:42:55;12.60;99.90
57386;DHT22;62655;56.780;23.922;2022-10-16T05:45:22;12.60;99.90
57386;DHT22;62655;56.780;23.922;2022-10-16T05:47:50;12.60;99.90
57386;DHT22;62655;56.780;23.922;2022-10-16T05:50:19;12.60;99.90
57386;DHT22;62655;56.780;23.922;2022-10-16T05:52:47;12.70;99.90
57386;DHT22;62655;56.780;23.922;2022-10-16T05:55:14;12.70;99.90
57386;DHT22;62655;56.780;23.922;2022-10-16T05:57:42;12.80;99.90
57386;DHT22;62655;56.780;23.922;2022-10-16T06:00:09;12.80;99.90
57386;DHT22;62655;56.780;23.922;2022-10-16T06:02:37;12.90;99.90
57386;DHT22;62655;56.780;23.922;2022-10-16T06:05:04;12.90;99.90
57386;DHT22;62655;56.780;23.922;2022-10-16T06:07:33;12.90;99.90
57386;DHT22;62655;56.780;23.922;2022-10-16T06:10:01;12.90;99.90
57386;DHT22;62655;56.780;23.922;2022-10-16T06:12:28;12.90;99.90
57386;DHT22;62655;56.780;23.922;2022-10-16T06:14:55;12.90;99.90
57386;DHT22;62655;56.780;23.922;2022-10-16T06:17:22;12.90;99.90
57386;DHT22;62655;56.780;23.922;2022-10-16T06:19:50;12.90;99.90
57386;DHT22;62655;56.780;23.922;2022-10-16T06:22:17;12.90;99.90
57386;DHT22;62655;56.780;23.922;2022-10-16T06:24:45;13.00;99.90
57386;DHT22;62655;56.780;23.922;2022-10-16T06:27:13;13.00;99.90
57386;DHT22;62655;56.780;23.922;2022-10-16T06:29:40;13.00;99.90
57386;DHT22;62655;56.780;23.922;2022-10-16T06:32:07;13.00;99.90
57386;DHT22;62655;56.780;23.922;2022-10-16T06:34:34;13.00;99.90
57386;DHT22;62655;56.780;23.922;2022-10-16T06:37:03;13.00;99.90
57386;DHT22;62655;56.780;23.922;2022-10-16T06:39:30;13.00;99.90
57386;DHT22;62655;56.780;23.922;2022-10-16T06:41:57;13.10;99.90
57386;DHT22;62655;56.780;23.922;2022-10-16T06:44:30;13.10;99.90
57386;DHT22;62655;56.780;23.922;2022-10-16T06:46:57;13.10;99.90
57386;DHT22;62655;56.780;23.922;2022-10-16T06:49:24;13.10;99.90
57386;DHT22;62655;56.780;23.922;2022-10-16T06:51:51;13.20;99.90
57386;DHT22;62655;56.780;23.922;2022-10-16T06:54:18;13.10;99.90
57386;DHT22;62655;56.780;23.922;2022-10-16T06:56:45;13.10;99.90
57386;DHT22;62655;56.780;23.922;2022-10-16T06:59:12;13.10;99.90
57386;DHT22;62655;56.780;23.922;2022-10-16T07:01:39;13.10;99.90
57386;DHT22;62655;56.780;23.922;2022-10-16T07:04:06;13.10;99.90
57386;DHT22;62655;56.780;23.922;2022-10-16T07:06:34;13.20;99.90
57386;DHT22;62655;56.780;23.922;2022-10-16T07:09:02;13.20;99.90
57386;DHT22;62655;56.780;23.922;2022-10-16T07:11:30;13.20;99.90
57386;DHT22;62655;56.780;23.922;2022-10-16T07:13:58;13.20;99.90
57386;DHT22;62655;56.780;23.922;2022-10-16T07:16:26;13.20;99.90
57386;DHT22;62655;56.780;23.922;2022-10-16T07:18:54;13.20;99.90
57386;DHT22;62655;56.780;23.922;2022-10-16T07:21:27;13.20;99.90
57386;DHT22;62655;56.780;23.922;2022-10-16T07:23:57;13.30;99.90
57386;DHT22;62655;56.780;23.922;2022-10-16T07:26:24;13.20;99.90
57386;DHT22;62655;56.780;23.922;2022-10-16T07:28:52;13.20;99.90
57386;DHT22;62655;56.780;23.922;2022-10-16T07:31:20;13.20;99.90
57386;DHT22;62655;56.780;23.922;2022-10-16T07:33:47;13.30;99.90
57386;DHT22;62655;56.780;23.922;2022-10-16T07:36:16;13.40;99.90
57386;DHT22;62655;56.780;23.922;2022-10-16T07:38:43;13.30;99.90
57386;DHT22;62655;56.780;23.922;2022-10-16T07:41:11;13.40;99.90
57386;DHT22;62655;56.780;23.922;2022-10-16T07:43:39;13.40;99.90
57386;DHT22;62655;56.780;23.922;2022-10-16T07:46:07;13.40;99.90
57386;DHT22;62655;56.780;23.922;2022-10-16T07:48:34;13.40;99.90
57386;DHT22;62655;56.780;23.922;2022-10-16T07:51:03;13.40;99.90
57386;DHT22;62655;56.780;23.922;2022-10-16T07:53:31;13.40;99.90
57386;DHT22;62655;56.780;23.922;2022-10-16T07:55:58;13.50;99.90
57386;DHT22;62655;56.780;23.922;2022-10-16T07:58:26;13.50;99.90
57386;DHT22;62655;56.780;23.922;2022-10-16T08:00:54;13.50;99.90
57386;DHT22;62655;56.780;23.922;2022-10-16T08:03:22;13.60;99.90
57386;DHT22;62655;56.780;23.922;2022-10-16T08:05:50;13.60;99.90
57386;DHT22;62655;56.780;23.922;2022-10-16T08:08:18;13.70;99.90
57386;DHT22;62655;56.780;23.922;2022-10-16T08:10:45;13.80;99.90
57386;DHT22;62655;56.780;23.922;2022-10-16T08:13:12;13.80;99.90
57386;DHT22;62655;56.780;23.922;2022-10-16T08:15:42;13.90;99.90
57386;DHT22;62655;56.780;23.922;2022-10-16T08:18:11;13.90;99.90
57386;DHT22;62655;56.780;23.922;2022-10-16T08:20:38;14.00;99.90
57386;DHT22;62655;56.780;23.922;2022-10-16T08:23:06;14.10;99.90
57386;DHT22;62655;56.780;23.922;2022-10-16T08:25:36;14.10;99.90
57386;DHT22;62655;56.780;23.922;2022-10-16T08:28:04;14.10;99.90
57386;DHT22;62655;56.780;23.922;2022-10-16T08:30:33;13.90;99.90
57386;DHT22;62655;56.780;23.922;2022-10-16T08:33:00;13.80;99.90
57386;DHT22;62655;56.780;23.922;2022-10-16T08:35:27;13.90;99.90
57386;DHT22;62655;56.780;23.922;2022-10-16T08:37:54;13.90;99.90
57386;DHT22;62655;56.780;23.922;2022-10-16T08:43:14;13.90;99.90
57386;DHT22;62655;56.780;23.922;2022-10-16T08:45:48;13.90;99.90
57386;DHT22;62655;56.780;23.922;2022-10-16T08:48:20;13.90;99.90
57386;DHT22;62655;56.780;23.922;2022-10-16T08:50:50;14.00;99.90
57386;DHT22;62655;56.780;23.922;2022-10-16T08:53:23;14.10;99.90
57386;DHT22;62655;56.780;23.922;2022-10-16T08:55:52;14.00;99.90
57386;DHT22;62655;56.780;23.922;2022-10-16T08:58:21;14.10;99.90
57386;DHT22;62655;56.780;23.922;2022-10-16T09:00:55;14.10;99.90
57386;DHT22;62655;56.780;23.922;2022-10-16T09:09:09;14.10;99.90
57386;DHT22;62655;56.780;23.922;2022-10-16T09:17:00;14.20;99.90
57386;DHT22;62655;56.780;23.922;2022-10-16T09:19:38;14.20;99.90
57386;DHT22;62655;56.780;23.922;2022-10-16T09:22:12;14.30;99.90
57386;DHT22;62655;56.780;23.922;2022-10-16T09:24:41;14.30;99.90
57386;DHT22;62655;56.780;23.922;2022-10-16T09:27:11;14.20;99.90
57386;DHT22;62655;56.780;23.922;2022-10-16T09:29:39;14.20;99.90
57386;DHT22;62655;56.780;23.922;2022-10-16T09:32:10;14.30;99.90
57386;DHT22;62655;56.780;23.922;2022-10-16T09:34:39;14.30;99.90
57386;DHT22;62655;56.780;23.922;2022-10-16T09:37:10;14.20;99.90
57386;DHT22;62655;56.780;23.922;2022-10-16T09:39:46;14.20;99.90
57386;DHT22;62655;56.780;23.922;2022-10-16T09:42:34;14.20;99.90
57386;DHT22;62655;56.780;23.922;2022-10-16T09:45:00;14.30;99.90
57386;DHT22;62655;56.780;23.922;2022-10-16T09:47:28;14.30;99.90
57386;DHT22;62655;56.780;23.922;2022-10-16T09:52:24;14.40;99.90
57386;DHT22;62655;56.780;23.922;2022-10-16T09:54:52;14.40;99.90
57386;DHT22;62655;56.780;23.922;2022-10-16T09:57:20;14.30;99.90
57386;DHT22;62655;56.780;23.922;2022-10-16T09:59:49;14.40;99.90
57386;DHT22;62655;56.780;23.922;2022-10-16T10:02:18;14.40;99.90
57386;DHT22;62655;56.780;23.922;2022-10-16T10:04:50;14.40;99.90
57386;DHT22;62655;56.780;23.922;2022-10-16T10:07:18;14.40;99.90
57386;DHT22;62655;56.780;23.922;2022-10-16T10:09:47;14.50;99.90
57386;DHT22;62655;56.780;23.922;2022-10-16T10:12:27;14.50;99.90
57386;DHT22;62655;56.780;23.922;2022-10-16T10:14:56;14.50;99.90
57386;DHT22;62655;56.780;23.922;2022-10-16T10:17:24;14.50;99.90
57386;DHT22;62655;56.780;23.922;2022-10-16T10:19:59;14.60;99.90
57386;DHT22;62655;56.780;23.922;2022-10-16T10:25:00;14.70;99.90
57386;DHT22;62655;56.780;23.922;2022-10-16T10:30:23;14.70;99.90
57386;DHT22;62655;56.780;23.922;2022-10-16T10:38:02;14.70;99.90
57386;DHT22;62655;56.780;23.922;2022-10-16T10:40:43;14.70;99.90
57386;DHT22;62655;56.780;23.922;2022-10-16T10:46:03;14.80;99.90
57386;DHT22;62655;56.780;23.922;2022-10-16T10:51:12;14.80;99.90
57386;DHT22;62655;56.780;23.922;2022-10-16T10:53:43;14.90;99.90
57386;DHT22;62655;56.780;23.922;2022-10-16T11:01:16;14.80;99.90
57386;DHT22;62655;56.780;23.922;2022-10-16T11:06:25;14.80;99.90
57386;DHT22;62655;56.780;23.922;2022-10-16T11:08:53;14.80;99.90
57386;DHT22;62655;56.780;23.922;2022-10-16T11:11:46;14.70;99.90
57386;DHT22;62655;56.780;23.922;2022-10-16T11:14:20;14.80;99.90
57386;DHT22;62655;56.780;23.922;2022-10-16T11:16:55;14.80;99.90
57386;DHT22;62655;56.780;23.922;2022-10-16T11:19:43;14.70;99.90
57386;DHT22;62655;56.780;23.922;2022-10-16T11:22:17;14.80;99.90
57386;DHT22;62655;56.780;23.922;2022-10-16T11:24:51;14.80;99.90
57386;DHT22;62655;56.780;23.922;2022-10-16T11:27:22;14.80;99.90
57386;DHT22;62655;56.780;23.922;2022-10-16T11:29:56;14.80;99.90
57386;DHT22;62655;56.780;23.922;2022-10-16T11:32:28;14.70;99.90
57386;DHT22;62655;56.780;23.922;2022-10-16T11:35:00;14.70;99.90
57386;DHT22;62655;56.780;23.922;2022-10-16T11:37:31;14.80;99.90
57386;DHT22;62655;56.780;23.922;2022-10-16T11:40:03;14.70;99.90
57386;DHT22;62655;56.780;23.922;2022-10-16T11:42:34;14.70;99.90
57386;DHT22;62655;56.780;23.922;2022-10-16T11:47:35;14.80;99.90
57386;DHT22;62655;56.780;23.922;2022-10-16T11:50:31;14.80;99.90
57386;DHT22;62655;56.780;23.922;2022-10-16T11:55:45;14.80;99.90
57386;DHT22;62655;56.780;23.922;2022-10-16T11:58:19;14.70;99.90
57386;DHT22;62655;56.780;23.922;2022-10-16T12:00:51;14.80;99.90
57386;DHT22;62655;56.780;23.922;2022-10-16T12:05:57;14.80;99.90
57386;DHT22;62655;56.780;23.922;2022-10-16T12:08:26;14.80;99.90
57386;DHT22;62655;56.780;23.922;2022-10-16T12:10:53;14.80;99.90
57386;DHT22;62655;56.780;23.922;2022-10-16T12:13:29;14.90;99.90
57386;DHT22;62655;56.780;23.922;2022-10-16T12:18:33;14.90;99.90
57386;DHT22;62655;56.780;23.922;2022-10-16T12:21:00;14.80;99.90
57386;DHT22;62655;56.780;23.922;2022-10-16T12:23:33;14.80;99.90
57386;DHT22;62655;56.780;23.922;2022-10-16T12:26:03;14.80;99.90
57386;DHT22;62655;56.780;23.922;2022-10-16T12:28:34;14.80;99.90
57386;DHT22;62655;56.780;23.922;2022-10-16T12:31:06;14.80;99.90
57386;DHT22;62655;56.780;23.922;2022-10-16T12:33:34;14.80;99.90
57386;DHT22;62655;56.780;23.922;2022-10-16T12:36:03;14.80;99.90
57386;DHT22;62655;56.780;23.922;2022-10-16T12:39:05;14.80;99.90
57386;DHT22;62655;56.780;23.922;2022-10-16T12:43:55;14.80;99.90
57386;DHT22;62655;56.780;23.922;2022-10-16T12:51:41;14.90;99.90
57386;DHT22;62655;56.780;23.922;2022-10-16T13:05:01;14.80;99.90
57386;DHT22;62655;56.780;23.922;2022-10-16T13:12:57;14.70;99.90
57386;DHT22;62655;56.780;23.922;2022-10-16T13:28:10;14.70;99.90
57386;DHT22;62655;56.780;23.922;2022-10-16T13:30:41;14.60;99.90
57386;DHT22;62655;56.780;23.922;2022-10-16T13:35:37;14.50;99.90
57386;DHT22;62655;56.780;23.922;2022-10-16T13:38:05;14.50;99.90
57386;DHT22;62655;56.780;23.922;2022-10-16T13:40:32;14.50;99.90
57386;DHT22;62655;56.780;23.922;2022-10-16T13:43:01;14.50;99.90
57386;DHT22;62655;56.780;23.922;2022-10-16T13:45:28;14.50;99.90
57386;DHT22;62655;56.780;23.922;2022-10-16T13:48:05;14.60;99.90
57386;DHT22;62655;56.780;23.922;2022-10-16T13:50:32;14.50;99.90
57386;DHT22;62655;56.780;23.922;2022-10-16T13:53:03;14.50;99.90
57386;DHT22;62655;56.780;23.922;2022-10-16T13:55:31;14.50;99.90
57386;DHT22;62655;56.780;23.922;2022-10-16T13:58:07;14.60;99.90
57386;DHT22;62655;56.780;23.922;2022-10-16T14:00:35;14.50;99.90
57386;DHT22;62655;56.780;23.922;2022-10-16T14:03:11;14.50;99.90
57386;DHT22;62655;56.780;23.922;2022-10-16T14:05:45;14.50;99.90
57386;DHT22;62655;56.780;23.922;2022-10-16T14:08:14;14.50;99.90
57386;DHT22;62655;56.780;23.922;2022-10-16T14:10:41;14.50;99.90
57386;DHT22;62655;56.780;23.922;2022-10-16T14:13:12;14.50;99.90
57386;DHT22;62655;56.780;23.922;2022-10-16T14:15:40;14.50;99.90
57386;DHT22;62655;56.780;23.922;2022-10-16T14:18:19;14.50;99.90
57386;DHT22;62655;56.780;23.922;2022-10-16T14:20:47;14.50;99.90
57386;DHT22;62655;56.780;23.922;2022-10-16T14:23:31;14.50;99.90
57386;DHT22;62655;56.780;23.922;2022-10-16T14:28:37;14.50;99.90
57386;DHT22;62655;56.780;23.922;2022-10-16T14:33:46;14.50;99.90
57386;DHT22;62655;56.780;23.922;2022-10-16T14:36:13;14.50;99.90
57386;DHT22;62655;56.780;23.922;2022-10-16T14:38:42;14.50;99.90
57386;DHT22;62655;56.780;23.922;2022-10-16T14:41:09;14.40;99.90
57386;DHT22;62655;56.780;23.922;2022-10-16T14:43:37;14.40;99.90
57386;DHT22;62655;56.780;23.922;2022-10-16T14:46:12;14.40;99.90
57386;DHT22;62655;56.780;23.922;2022-10-16T14:48:45;14.30;99.90
57386;DHT22;62655;56.780;23.922;2022-10-16T14:51:14;14.30;99.90
57386;DHT22;62655;56.780;23.922;2022-10-16T14:53:42;14.20;99.90
57386;DHT22;62655;56.780;23.922;2022-10-16T14:56:31;14.10;99.90
57386;DHT22;62655;56.780;23.922;2022-10-16T14:58:59;14.20;99.90
57386;DHT22;62655;56.780;23.922;2022-10-16T15:01:26;14.10;99.90
57386;DHT22;62655;56.780;23.922;2022-10-16T15:03:54;14.10;99.90
57386;DHT22;62655;56.780;23.922;2022-10-16T15:06:22;14.00;99.90
57386;DHT22;62655;56.780;23.922;2022-10-16T15:08:49;14.00;99.90
57386;DHT22;62655;56.780;23.922;2022-10-16T15:11:17;14.00;99.90
57386;DHT22;62655;56.780;23.922;2022-10-16T15:13:45;13.90;99.90
57386;DHT22;62655;56.780;23.922;2022-10-16T15:16:13;14.00;99.90
57386;DHT22;62655;56.780;23.922;2022-10-16T15:18:41;14.00;99.90
57386;DHT22;62655;56.780;23.922;2022-10-16T15:21:09;14.00;99.90
57386;DHT22;62655;56.780;23.922;2022-10-16T15:23:43;13.90;99.90
57386;DHT22;62655;56.780;23.922;2022-10-16T15:26:10;14.00;99.90
57386;DHT22;62655;56.780;23.922;2022-10-16T15:28:37;14.00;99.90
57386;DHT22;62655;56.780;23.922;2022-10-16T15:31:04;14.00;99.90
57386;DHT22;62655;56.780;23.922;2022-10-16T15:33:32;14.00;99.90
57386;DHT22;62655;56.780;23.922;2022-10-16T15:36:06;14.00;99.90
57386;DHT22;62655;56.780;23.922;2022-10-16T15:38:33;14.10;99.90
57386;DHT22;62655;56.780;23.922;2022-10-16T15:41:01;14.00;99.90
57386;DHT22;62655;56.780;23.922;2022-10-16T15:43:28;14.10;99.90
57386;DHT22;62655;56.780;23.922;2022-10-16T15:46:00;14.10;99.90
57386;DHT22;62655;56.780;23.922;2022-10-16T15:48:28;14.10;99.90
57386;DHT22;62655;56.780;23.922;2022-10-16T15:50:56;14.10;99.90
57386;DHT22;62655;56.780;23.922;2022-10-16T15:53:23;14.10;99.90
57386;DHT22;62655;56.780;23.922;2022-10-16T15:55:50;14.20;99.90
57386;DHT22;62655;56.780;23.922;2022-10-16T15:58:17;14.20;99.90
57386;DHT22;62655;56.780;23.922;2022-10-16T16:00:45;14.10;99.90
57386;DHT22;62655;56.780;23.922;2022-10-16T16:03:12;14.10;99.90
57386;DHT22;62655;56.780;23.922;2022-10-16T16:05:40;14.20;99.90
57386;DHT22;62655;56.780;23.922;2022-10-16T16:08:12;14.20;99.90
57386;DHT22;62655;56.780;23.922;2022-10-16T16:10:39;14.20;99.90
57386;DHT22;62655;56.780;23.922;2022-10-16T16:13:07;14.20;99.90
57386;DHT22;62655;56.780;23.922;2022-10-16T16:15:34;14.10;99.90
57386;DHT22;62655;56.780;23.922;2022-10-16T16:18:01;14.20;99.90
57386;DHT22;62655;56.780;23.922;2022-10-16T16:20:35;14.20;99.90
57386;DHT22;62655;56.780;23.922;2022-10-16T16:23:02;14.20;99.90
57386;DHT22;62655;56.780;23.922;2022-10-16T16:25:29;14.20;99.90
57386;DHT22;62655;56.780;23.922;2022-10-16T16:27:56;14.20;99.90
57386;DHT22;62655;56.780;23.922;2022-10-16T16:30:23;14.20;99.90
57386;DHT22;62655;56.780;23.922;2022-10-16T16:32:53;14.20;99.90
57386;DHT22;62655;56.780;23.922;2022-10-16T16:35:21;14.20;99.90
57386;DHT22;62655;56.780;23.922;2022-10-16T16:37:48;14.30;99.90
57386;DHT22;62655;56.780;23.922;2022-10-16T16:40:15;14.30;99.90
57386;DHT22;62655;56.780;23.922;2022-10-16T16:42:42;14.30;99.90
57386;DHT22;62655;56.780;23.922;2022-10-16T16:45:09;14.30;99.90
57386;DHT22;62655;56.780;23.922;2022-10-16T16:47:36;14.30;99.90
57386;DHT22;62655;56.780;23.922;2022-10-16T16:50:05;14.30;99.90
57386;DHT22;62655;56.780;23.922;2022-10-16T16:52:36;14.40;99.90
57386;DHT22;62655;56.780;23.922;2022-10-16T16:55:04;14.40;99.90
57386;DHT22;62655;56.780;23.922;2022-10-16T16:57:31;14.40;99.90
57386;DHT22;62655;56.780;23.922;2022-10-16T16:59:58;14.40;99.90
57386;DHT22;62655;56.780;23.922;2022-10-16T17:02:26;14.40;99.90
57386;DHT22;62655;56.780;23.922;2022-10-16T17:04:53;14.40;99.90
57386;DHT22;62655;56.780;23.922;2022-10-16T17:07:20;14.30;99.90
57386;DHT22;62655;56.780;23.922;2022-10-16T17:09:50;14.40;99.90
57386;DHT22;62655;56.780;23.922;2022-10-16T17:12:17;14.40;99.90
57386;DHT22;62655;56.780;23.922;2022-10-16T17:14:45;14.40;99.90